createdAt,value
2019-04-27T00:01:13.954Z,93.90
2019-04-27T00:03:49.599Z,94.00
2019-04-27T00:06:17.411Z,94.20
2019-04-27T00:08:51.273Z,94.50
2019-04-27T00:11:26.053Z,94.60
2019-04-27T00:13:53.826Z,94.70
2019-04-27T00:16:46.879Z,94.70
2019-04-27T00:19:39.823Z,94.90
2019-04-27T00:22:27.133Z,95.00
2019-04-27T00:24:54.919Z,95.20
2019-04-27T00:27:23.464Z,95.40
2019-04-27T00:29:53.424Z,95.40
2019-04-27T00:32:20.984Z,95.50
2019-04-27T00:34:48.991Z,95.70
2019-04-27T00:37:50.928Z,95.90
2019-04-27T00:40:39.166Z,96.10
2019-04-27T00:43:07.033Z,96.10
2019-04-27T00:45:34.829Z,96.00
2019-04-27T00:48:03.555Z,96.00
2019-04-27T00:50:31.451Z,95.90
2019-04-27T00:52:59.249Z,95.60
2019-04-27T00:55:27.059Z,95.60
2019-04-27T00:58:29.311Z,95.60
2019-04-27T01:01:06.030Z,95.70
2019-04-27T01:03:37.174Z,95.90
2019-04-27T01:06:05.146Z,96.00
2019-04-27T01:08:34.267Z,96.20
2019-04-27T01:11:02.943Z,96.30
2019-04-27T01:13:30.817Z,95.90
2019-04-27T01:15:58.640Z,96.00
2019-04-27T01:18:26.407Z,96.00
2019-04-27T01:20:54.217Z,96.20
2019-04-27T01:23:22.025Z,96.40
2019-04-27T01:26:05.924Z,97.10
2019-04-27T01:28:41.946Z,97.30
2019-04-27T01:31:11.104Z,97.30
2019-04-27T01:33:39.018Z,97.80
2019-04-27T01:36:07.019Z,97.90
2019-04-27T01:38:34.807Z,98.20
2019-04-27T01:41:02.735Z,98.70
2019-04-27T01:43:30.542Z,99.00
2019-04-27T01:46:00.954Z,99.20
2019-04-27T01:48:30.423Z,99.40
2019-04-27T01:50:59.338Z,99.80
2019-04-27T01:53:28.605Z,99.50
2019-04-27T01:55:59.057Z,99.70
2019-04-27T01:58:28.915Z,99.90
2019-04-27T02:01:14.897Z,99.90
2019-04-27T02:04:05.337Z,99.90
2019-04-27T02:06:33.281Z,99.90
2019-04-27T02:09:01.097Z,99.90
2019-04-27T02:11:29.385Z,99.90
2019-04-27T02:13:57.236Z,99.90
2019-04-27T02:16:25.740Z,99.90
2019-04-27T02:18:53.543Z,99.90
2019-04-27T02:21:21.368Z,99.90
2019-04-27T02:23:49.714Z,99.90
2019-04-27T02:26:19.163Z,99.90
2019-04-27T02:29:25.457Z,99.90
2019-04-27T02:32:11.204Z,99.90
2019-04-27T02:34:52.164Z,99.90
2019-04-27T02:37:22.736Z,99.90
2019-04-27T02:39:50.566Z,99.90
2019-04-27T02:42:20.038Z,99.90
2019-04-27T02:44:49.431Z,99.90
2019-04-27T02:47:17.430Z,99.90
2019-04-27T02:49:45.254Z,99.90
2019-04-27T02:52:22.843Z,99.90
2019-04-27T02:54:50.842Z,99.90
2019-04-27T02:57:19.794Z,99.90
2019-04-27T02:59:50.303Z,99.90
2019-04-27T03:02:32.159Z,99.90
2019-04-27T03:05:00.797Z,99.90
2019-04-27T03:07:30.145Z,99.90
2019-04-27T03:10:01.420Z,99.90
2019-04-27T03:12:32.479Z,99.90
2019-04-27T03:15:23.483Z,99.90
2019-04-27T03:18:14.247Z,99.90
2019-04-27T03:20:54.224Z,99.90
2019-04-27T03:23:22.122Z,99.90
2019-04-27T03:26:03.482Z,99.90
2019-04-27T03:28:31.465Z,99.90
2019-04-27T03:31:02.628Z,99.90
2019-04-27T03:33:32.480Z,99.90
2019-04-27T03:36:02.576Z,99.90
2019-04-27T03:38:30.107Z,99.90
2019-04-27T03:41:00.301Z,99.90
2019-04-27T03:43:30.046Z,99.90
2019-04-27T03:46:00.218Z,99.90
2019-04-27T03:48:29.380Z,99.90
2019-04-27T03:51:31.814Z,99.90
2019-04-27T03:54:25.162Z,99.90
2019-04-27T03:56:59.443Z,99.90
2019-04-27T03:59:53.242Z,99.90
2019-04-27T04:02:21.109Z,99.90
2019-04-27T04:04:50.722Z,99.90
2019-04-27T04:07:19.717Z,99.90
2019-04-27T04:09:50.112Z,99.90
2019-04-27T04:12:37.154Z,99.90
2019-04-27T04:15:06.404Z,99.90
2019-04-27T04:17:34.231Z,99.90
2019-04-27T04:20:02.344Z,99.90
2019-04-27T04:22:30.898Z,99.90
2019-04-27T04:24:59.890Z,99.90
2019-04-27T04:27:29.859Z,99.90
2019-04-27T04:29:59.425Z,99.90
2019-04-27T04:32:29.577Z,99.90
2019-04-27T04:35:21.223Z,99.90
2019-04-27T04:37:49.614Z,99.90
2019-04-27T04:40:23.117Z,99.90
2019-04-27T04:42:56.095Z,99.90
2019-04-27T04:45:43.591Z,99.90
2019-04-27T04:48:14.037Z,99.90
2019-04-27T04:50:41.813Z,99.90
2019-04-27T04:53:12.172Z,99.90
2019-04-27T04:55:39.366Z,99.90
2019-04-27T04:58:09.217Z,99.90
2019-04-27T05:00:37.261Z,99.80
2019-04-27T05:03:05.085Z,99.50
2019-04-27T05:05:32.896Z,99.50
2019-04-27T05:08:00.911Z,99.10
2019-04-27T05:10:28.803Z,98.80
2019-04-27T05:12:59.056Z,99.00
2019-04-27T05:15:27.012Z,98.20
2019-04-27T05:17:54.862Z,98.70
2019-04-27T05:20:48.659Z,98.70
2019-04-27T05:23:18.515Z,98.60
2019-04-27T05:25:46.284Z,98.80
2019-04-27T05:28:14.101Z,99.00
2019-04-27T05:30:42.032Z,99.20
2019-04-27T05:33:10.354Z,99.20
2019-04-27T05:35:40.628Z,99.50
2019-04-27T05:38:12.792Z,99.60
2019-04-27T05:40:39.655Z,99.50
2019-04-27T05:43:09.113Z,99.60
2019-04-27T05:46:43.790Z,99.80
2019-04-27T05:49:36.374Z,99.40
2019-04-27T05:52:08.557Z,99.50
2019-04-27T05:54:35.872Z,99.80
2019-04-27T05:57:03.675Z,99.90
2019-04-27T05:59:31.514Z,99.90
2019-04-27T06:01:59.436Z,99.90
2019-04-27T06:04:28.990Z,99.90
2019-04-27T06:07:00.523Z,99.80
2019-04-27T06:09:26.829Z,99.70
2019-04-27T06:11:54.853Z,99.30
2019-04-27T06:14:22.670Z,98.90
2019-04-27T06:16:51.359Z,98.70
2019-04-27T06:19:19.514Z,98.10
2019-04-27T06:21:47.390Z,98.10
2019-04-27T06:24:15.205Z,97.90
2019-04-27T06:26:43.136Z,97.60
2019-04-27T06:29:11.208Z,97.40
2019-04-27T06:31:39.654Z,97.80
2019-04-27T06:34:09.647Z,97.60
2019-04-27T06:36:38.750Z,97.40
2019-04-27T06:39:09.610Z,97.10
2019-04-27T06:41:37.513Z,96.00
2019-04-27T06:44:05.322Z,96.10
2019-04-27T06:46:33.247Z,95.60
2019-04-27T06:49:01.602Z,95.80
2019-04-27T06:51:29.473Z,95.90
2019-04-27T06:53:57.333Z,95.50
2019-04-27T06:56:25.810Z,95.20
2019-04-27T06:58:53.705Z,95.00
2019-04-27T07:01:21.518Z,94.80
2019-04-27T07:03:49.471Z,94.60
2019-04-27T07:06:18.718Z,94.70
2019-04-27T07:08:46.626Z,94.90
2019-04-27T07:11:14.449Z,94.50
2019-04-27T07:13:42.470Z,94.60
2019-04-27T07:16:10.360Z,94.40
2019-04-27T07:18:39.708Z,94.50
2019-04-27T07:21:17.021Z,94.50
2019-04-27T07:23:48.831Z,94.70
2019-04-27T07:26:16.678Z,93.70
2019-04-27T07:28:44.450Z,93.20
2019-04-27T07:31:12.757Z,93.40
2019-04-27T07:33:40.604Z,92.90
2019-04-27T07:36:08.970Z,92.40
2019-04-27T07:38:36.933Z,92.80
2019-04-27T07:41:04.725Z,92.00
2019-04-27T07:43:44.374Z,91.70
2019-04-27T07:46:12.223Z,91.60
2019-04-27T07:48:40.068Z,91.70
2019-04-27T07:51:08.985Z,91.50
2019-04-27T07:53:36.892Z,91.50
2019-04-27T07:56:04.673Z,91.30
2019-04-27T07:58:32.548Z,90.90
2019-04-27T08:01:00.451Z,90.20
2019-04-27T08:03:29.102Z,90.20
2019-04-27T08:05:58.713Z,90.10
2019-04-27T08:08:28.487Z,90.10
2019-04-27T08:10:56.354Z,90.00
2019-04-27T08:13:24.157Z,90.20
2019-04-27T08:15:51.966Z,90.00
2019-04-27T08:18:19.812Z,90.10
2019-04-27T08:20:49.069Z,89.00
2019-04-27T08:23:17.027Z,89.80
2019-04-27T08:25:44.810Z,88.60
2019-04-27T08:28:32.376Z,88.00
2019-04-27T08:31:14.236Z,87.80
2019-04-27T08:33:42.119Z,87.30
2019-04-27T08:36:09.941Z,87.10
2019-04-27T08:38:38.972Z,87.20
2019-04-27T08:41:06.913Z,87.30
2019-04-27T08:43:38.845Z,86.20
2019-04-27T08:46:08.625Z,86.20
2019-04-27T08:48:37.053Z,86.30
2019-04-27T08:51:05.667Z,85.30
2019-04-27T08:53:33.539Z,84.70
2019-04-27T08:56:01.366Z,84.70
2019-04-27T08:58:29.336Z,84.20
2019-04-27T09:00:58.893Z,84.70
2019-04-27T09:03:26.741Z,84.10
2019-04-27T09:05:54.586Z,83.70
2019-04-27T09:08:39.061Z,83.20
2019-04-27T09:11:20.585Z,81.90
2019-04-27T09:14:03.012Z,81.10
2019-04-27T09:16:35.569Z,81.10
2019-04-27T09:19:08.879Z,83.80
2019-04-27T09:21:54.573Z,79.90
2019-04-27T09:24:22.438Z,79.60
2019-04-27T09:26:50.283Z,79.30
2019-04-27T09:29:19.804Z,79.70
2019-04-27T09:31:49.011Z,79.10
2019-04-27T09:34:18.848Z,78.90
2019-04-27T09:36:46.865Z,78.90
2019-04-27T09:39:16.291Z,78.40
2019-04-27T09:41:46.027Z,78.40
2019-04-27T09:44:15.972Z,78.10
2019-04-27T09:46:44.142Z,78.10
2019-04-27T09:49:12.180Z,78.00
2019-04-27T09:51:40.116Z,77.70
2019-04-27T09:54:07.974Z,77.30
2019-04-27T09:56:36.371Z,77.40
2019-04-27T09:59:04.286Z,77.60
2019-04-27T10:01:32.178Z,77.80
2019-04-27T10:04:00.008Z,78.00
2019-04-27T10:06:29.867Z,78.20
2019-04-27T10:08:57.759Z,77.40
2019-04-27T10:11:26.461Z,77.00
2019-04-27T10:13:55.606Z,77.20
2019-04-27T10:16:23.606Z,77.10
2019-04-27T10:18:51.477Z,77.10
2019-04-27T10:21:19.285Z,77.10
2019-04-27T10:23:47.255Z,77.70
2019-04-27T10:26:15.767Z,77.30
2019-04-27T10:28:43.796Z,77.30
2019-04-27T10:31:11.602Z,78.10
2019-04-27T10:33:39.394Z,77.90
2019-04-27T10:36:07.231Z,76.80
2019-04-27T10:38:35.997Z,76.60
2019-04-27T10:41:05.936Z,77.10
2019-04-27T10:43:33.834Z,77.20
2019-04-27T10:46:01.671Z,76.80
2019-04-27T10:48:29.534Z,77.50
2019-04-27T10:50:57.369Z,77.10
2019-04-27T10:53:26.775Z,77.20
2019-04-27T10:55:56.418Z,77.60
2019-04-27T10:58:25.422Z,77.60
2019-04-27T11:00:58.478Z,76.70
2019-04-27T11:03:46.194Z,77.40
2019-04-27T11:06:32.618Z,77.40
2019-04-27T11:09:00.451Z,76.90
2019-04-27T11:11:28.363Z,76.30
2019-04-27T11:13:56.945Z,76.40
2019-04-27T11:16:25.828Z,75.90
2019-04-27T11:18:56.431Z,76.10
2019-04-27T11:21:23.744Z,75.80
2019-04-27T11:23:51.612Z,76.00
2019-04-27T11:26:19.439Z,75.70
2019-04-27T11:28:47.598Z,75.70
2019-04-27T11:31:17.119Z,75.20
2019-04-27T11:33:46.463Z,75.60
2019-04-27T11:36:35.659Z,75.00
2019-04-27T11:39:09.311Z,75.00
2019-04-27T11:41:37.145Z,72.90
2019-04-27T11:44:04.957Z,73.00
2019-04-27T11:46:32.845Z,72.20
2019-04-27T11:49:00.667Z,71.80
2019-04-27T11:51:28.650Z,71.90
2019-04-27T11:53:56.611Z,72.00
2019-04-27T11:56:24.658Z,72.40
2019-04-27T11:58:52.465Z,72.00
2019-04-27T12:01:20.574Z,72.10
2019-04-27T12:03:50.843Z,71.80
2019-04-27T12:06:18.703Z,71.70
2019-04-27T12:08:46.522Z,71.80
2019-04-27T12:11:16.027Z,71.40
2019-04-27T12:13:45.943Z,70.60
2019-04-27T12:16:13.690Z,71.10
2019-04-27T12:18:42.675Z,71.20
2019-04-27T12:21:10.547Z,70.40
2019-04-27T12:23:41.192Z,70.90
2019-04-27T12:26:09.849Z,70.40
2019-04-27T12:28:43.821Z,70.60
2019-04-27T12:31:42.834Z,70.90
2019-04-27T12:34:09.922Z,70.20
2019-04-27T12:36:37.841Z,71.00
2019-04-27T12:39:10.913Z,71.10
2019-04-27T12:41:38.715Z,71.00
2019-04-27T12:44:07.143Z,71.00
2019-04-27T12:46:35.152Z,71.30
2019-04-27T12:49:03.243Z,71.80
2019-04-27T12:51:31.103Z,71.40
2019-04-27T12:54:16.178Z,71.30
2019-04-27T12:57:03.788Z,71.00
2019-04-27T12:59:50.354Z,69.70
2019-04-27T13:02:20.512Z,70.80
2019-04-27T13:04:48.303Z,68.90
2019-04-27T13:07:16.276Z,69.00
2019-04-27T13:09:46.024Z,69.00
2019-04-27T13:12:14.024Z,68.40
2019-04-27T13:14:41.859Z,68.00
2019-04-27T13:17:09.742Z,68.00
2019-04-27T13:19:37.638Z,67.40
2019-04-27T13:22:06.169Z,67.20
2019-04-27T13:24:35.707Z,66.90
2019-04-27T13:27:04.200Z,67.30
2019-04-27T13:29:31.977Z,67.50
2019-04-27T13:31:59.821Z,67.40
2019-04-27T13:34:27.613Z,67.80
2019-04-27T13:36:56.199Z,67.20
2019-04-27T13:39:25.723Z,66.30
2019-04-27T13:41:53.802Z,66.20
2019-04-27T13:44:21.626Z,66.10
2019-04-27T13:47:07.250Z,66.70
2019-04-27T13:49:57.074Z,66.40
2019-04-27T13:52:29.828Z,66.50
2019-04-27T13:54:56.723Z,66.30
2019-04-27T13:57:26.440Z,66.50
2019-04-27T13:59:56.405Z,66.60
2019-04-27T14:02:26.601Z,66.30
2019-04-27T14:04:56.177Z,65.60
2019-04-27T14:07:26.496Z,64.80
2019-04-27T14:09:56.694Z,64.40
2019-04-27T14:12:24.898Z,63.80
2019-04-27T14:14:52.711Z,63.90
2019-04-27T14:17:21.651Z,63.90
2019-04-27T14:19:49.461Z,63.20
2019-04-27T14:22:18.239Z,63.10
2019-04-27T14:24:46.157Z,63.20
2019-04-27T14:27:14.448Z,63.50
2019-04-27T14:29:42.357Z,62.90
2019-04-27T14:32:10.729Z,62.60
2019-04-27T14:34:38.644Z,62.10
2019-04-27T14:37:08.526Z,61.30
2019-04-27T14:39:36.098Z,61.30
2019-04-27T14:42:04.103Z,60.50
2019-04-27T14:44:33.860Z,60.00
2019-04-27T14:47:01.777Z,59.60
2019-04-27T14:49:30.248Z,59.10
2019-04-27T14:51:58.545Z,59.40
2019-04-27T14:54:26.525Z,59.10
2019-04-27T14:56:55.474Z,59.30
2019-04-27T14:59:23.282Z,59.40
2019-04-27T15:01:51.135Z,59.50
2019-04-27T15:04:18.926Z,59.50
2019-04-27T15:06:47.089Z,59.40
2019-04-27T15:09:18.028Z,60.90
2019-04-27T15:11:45.069Z,59.40
2019-04-27T15:14:16.241Z,59.60
2019-04-27T15:16:47.902Z,60.00
2019-04-27T15:19:21.657Z,60.10
2019-04-27T15:21:56.427Z,59.80
2019-04-27T15:24:20.655Z,59.90
2019-04-27T15:26:50.167Z,60.30
2019-04-27T15:29:20.587Z,59.80
2019-04-27T15:31:59.980Z,59.80
2019-04-27T15:34:48.262Z,59.80
2019-04-27T15:37:35.264Z,60.30
2019-04-27T15:40:32.121Z,60.50
2019-04-27T15:43:14.356Z,60.60
2019-04-27T15:45:42.333Z,60.50
2019-04-27T15:48:10.321Z,60.80
2019-04-27T15:50:38.716Z,60.50
2019-04-27T15:53:09.637Z,60.20
2019-04-27T15:55:39.220Z,60.30
2019-04-27T15:58:08.195Z,59.80
2019-04-27T16:00:38.193Z,59.90
2019-04-27T16:03:08.253Z,60.60
2019-04-27T16:05:36.147Z,59.60
2019-04-27T16:08:06.129Z,59.90
2019-04-27T16:10:37.388Z,60.00
2019-04-27T16:13:07.104Z,60.00
2019-04-27T16:15:33.441Z,59.80
2019-04-27T16:18:01.260Z,60.20
2019-04-27T16:20:33.629Z,60.40
2019-04-27T16:23:03.183Z,60.40
2019-04-27T16:25:31.553Z,60.40
2019-04-27T16:27:58.115Z,60.80
2019-04-27T16:30:26.142Z,60.90
2019-04-27T16:32:53.999Z,60.30
2019-04-27T16:35:23.038Z,60.40
2019-04-27T16:38:07.782Z,60.20
2019-04-27T16:40:34.912Z,60.90
2019-04-27T16:43:05.129Z,60.10
2019-04-27T16:45:32.959Z,60.70
2019-04-27T16:48:03.077Z,60.80
2019-04-27T16:50:30.905Z,60.30
2019-04-27T16:53:02.373Z,60.70
2019-04-27T16:55:34.129Z,60.70
2019-04-27T16:58:00.966Z,60.70
2019-04-27T17:00:30.264Z,60.80
2019-04-27T17:03:01.342Z,61.30
2019-04-27T17:05:30.935Z,60.60
2019-04-27T17:07:57.968Z,60.50
2019-04-27T17:10:27.107Z,60.40
2019-04-27T17:12:55.480Z,60.30
2019-04-27T17:15:42.288Z,60.50
2019-04-27T17:18:44.341Z,60.40
2019-04-27T17:21:18.922Z,60.50
2019-04-27T17:23:43.556Z,61.00
2019-04-27T17:26:21.094Z,61.10
2019-04-27T17:28:50.601Z,61.30
2019-04-27T17:31:21.091Z,61.70
2019-04-27T17:33:53.394Z,61.60
2019-04-27T17:36:21.728Z,61.60
2019-04-27T17:38:51.106Z,61.80
2019-04-27T17:41:19.304Z,61.50
2019-04-27T17:43:48.148Z,61.50
2019-04-27T17:46:16.404Z,61.90
2019-04-27T17:48:44.291Z,61.70
2019-04-27T17:51:12.286Z,61.70
2019-04-27T17:53:40.469Z,61.70
2019-04-27T17:56:09.482Z,61.30
2019-04-27T17:58:39.866Z,61.80
2019-04-27T18:01:09.190Z,62.00
2019-04-27T18:03:38.758Z,70.00
2019-04-27T18:06:08.528Z,70.70
2019-04-27T18:08:40.053Z,70.40
2019-04-27T18:11:05.897Z,69.80
2019-04-27T18:13:33.701Z,70.00
2019-04-27T18:16:02.203Z,69.90
2019-04-27T18:18:57.919Z,69.90
2019-04-27T18:21:30.174Z,69.90
2019-04-27T18:24:02.402Z,69.90
2019-04-27T18:27:04.352Z,69.90
2019-04-27T18:29:31.276Z,70.80
2019-04-27T18:31:59.113Z,71.10
2019-04-27T18:34:28.613Z,71.10
2019-04-27T18:36:56.629Z,71.30
2019-04-27T18:39:24.486Z,71.50
2019-04-27T18:41:54.289Z,71.70
2019-04-27T18:44:23.861Z,71.60
2019-04-27T18:46:53.643Z,71.00
2019-04-27T18:49:34.522Z,70.70
2019-04-27T18:52:21.853Z,69.30
2019-04-27T18:54:49.659Z,69.20
2019-04-27T18:57:17.596Z,69.10
2019-04-27T18:59:45.509Z,69.20
2019-04-27T19:02:13.366Z,69.30
2019-04-27T19:04:41.268Z,69.50
2019-04-27T19:07:09.206Z,69.20
2019-04-27T19:09:37.047Z,69.10
2019-04-27T19:12:05.400Z,69.50
2019-04-27T19:14:33.230Z,69.40
2019-04-27T19:17:01.067Z,69.10
2019-04-27T19:19:29.054Z,68.40
2019-04-27T19:21:58.763Z,69.00
2019-04-27T19:24:28.191Z,69.10
2019-04-27T19:27:20.902Z,68.90
2019-04-27T19:29:58.895Z,69.10
2019-04-27T19:32:28.143Z,69.70
2019-04-27T19:34:56.105Z,69.50
2019-04-27T19:37:23.909Z,68.50
2019-04-27T19:39:51.810Z,68.50
2019-04-27T19:42:20.421Z,68.60
2019-04-27T19:44:48.553Z,69.50
2019-04-27T19:47:16.352Z,70.80
2019-04-27T19:49:44.148Z,71.40
2019-04-27T19:52:12.029Z,71.10
2019-04-27T19:54:39.974Z,71.30
2019-04-27T19:57:09.108Z,71.80
2019-04-27T19:59:43.468Z,71.20
2019-04-27T20:02:15.208Z,71.10
2019-04-27T20:04:45.595Z,71.60
2019-04-27T20:07:13.588Z,70.90
2019-04-27T20:09:49.892Z,71.10
2019-04-27T20:12:17.567Z,71.40
2019-04-27T20:14:57.817Z,71.50
2019-04-27T20:17:26.892Z,71.50
2019-04-27T20:19:55.367Z,71.90
2019-04-27T20:22:24.390Z,72.20
2019-04-27T20:24:52.441Z,72.10
2019-04-27T20:27:21.204Z,71.90
2019-04-27T20:29:49.255Z,71.80
2019-04-27T20:32:17.090Z,72.60
2019-04-27T20:34:44.967Z,72.40
2019-04-27T20:37:13.268Z,72.60
2019-04-27T20:39:42.760Z,72.40
2019-04-27T20:42:12.504Z,72.60
2019-04-27T20:44:41.245Z,73.20
2019-04-27T20:47:09.550Z,73.80
2019-04-27T20:49:37.442Z,74.10
2019-04-27T20:52:11.514Z,74.30
2019-04-27T20:54:39.321Z,73.40
2019-04-27T20:57:08.919Z,73.50
2019-04-27T20:59:36.745Z,73.30
2019-04-27T21:02:42.286Z,73.90
2019-04-27T21:05:32.425Z,74.50
2019-04-27T21:08:02.648Z,75.80
2019-04-27T21:10:30.777Z,75.40
2019-04-27T21:13:00.934Z,75.00
2019-04-27T21:15:28.947Z,75.20
2019-04-27T21:17:56.741Z,76.20
2019-04-27T21:20:24.594Z,77.50
2019-04-27T21:22:53.445Z,80.00
2019-04-27T21:25:21.436Z,83.10
2019-04-27T21:27:51.197Z,83.60
2019-04-27T21:30:18.874Z,84.00
2019-04-27T21:32:46.691Z,83.60
2019-04-27T21:35:14.553Z,84.40
2019-04-27T21:37:42.347Z,85.00
2019-04-27T21:40:21.502Z,87.50
2019-04-27T21:42:51.142Z,88.30
2019-04-27T21:45:21.591Z,87.90
2019-04-27T21:47:49.073Z,87.30
2019-04-27T21:50:17.219Z,87.60
2019-04-27T21:53:16.468Z,88.30
2019-04-27T21:55:44.262Z,87.10
2019-04-27T21:58:12.087Z,87.30
2019-04-27T22:00:58.322Z,86.60
2019-04-27T22:03:29.437Z,86.70
2019-04-27T22:05:57.241Z,86.90
2019-04-27T22:08:25.094Z,87.10
2019-04-27T22:10:52.879Z,85.80
2019-04-27T22:13:22.227Z,85.00
2019-04-27T22:15:50.142Z,84.70
2019-04-27T22:18:17.975Z,83.30
2019-04-27T22:20:45.813Z,82.70
2019-04-27T22:23:33.118Z,83.50
2019-04-27T22:26:01.365Z,83.50
2019-04-27T22:28:43.886Z,84.00
2019-04-27T22:30:58.906Z,83.40
2019-04-27T22:33:26.714Z,82.50
2019-04-27T22:35:54.579Z,82.10
2019-04-27T22:38:22.372Z,82.20
2019-04-27T22:41:02.352Z,81.40
2019-04-27T22:44:01.413Z,80.80
2019-04-27T22:46:30.798Z,82.60
2019-04-27T22:48:58.807Z,81.60
2019-04-27T22:51:27.041Z,81.40
2019-04-27T22:53:54.911Z,81.80
2019-04-27T22:56:22.726Z,82.70
2019-04-27T22:59:00.973Z,80.90
2019-04-27T23:01:35.440Z,80.90
2019-04-27T23:04:03.404Z,81.40
2019-04-27T23:06:32.776Z,81.60
2019-04-27T23:09:01.645Z,81.90
2019-04-27T23:11:31.225Z,81.90
2019-04-27T23:14:00.931Z,82.40
2019-04-27T23:16:30.886Z,84.60
2019-04-27T23:18:58.706Z,84.10
2019-04-27T23:21:26.485Z,85.30
2019-04-27T23:23:54.355Z,84.40
2019-04-27T23:26:22.147Z,84.40
2019-04-27T23:28:51.390Z,84.50
2019-04-27T23:31:37.366Z,84.90
2019-04-27T23:34:05.179Z,87.00
2019-04-27T23:36:32.998Z,84.80
2019-04-27T23:39:01.005Z,86.10
2019-04-27T23:41:29.114Z,85.70
2019-04-27T23:43:57.876Z,86.50
2019-04-27T23:46:25.666Z,87.30
2019-04-27T23:48:53.949Z,87.80
2019-04-27T23:51:45.392Z,87.70
2019-04-27T23:54:13.244Z,88.40
2019-04-27T23:56:42.051Z,89.10
2019-04-27T23:59:09.943Z,89.30
